Time;durP1;ratioP1;P1;durP2;ratioP2;P2;SDS_P1;SDS_P2;PMS_P1;PMS_P2;Temp;Humidity;BMP_temperature;BMP_pressure;BME280_temperature;BME280_humidity;BME280_pressure;Samples;Min_cycle;Max_cycle;Signal;HPM_P1;HPM_P2
2021/04/12 00:00:04;;;;;;;;;;;;;;;;;;5054685;28;19927;-63
2021/04/12 00:02:30;;;;;;;;;;;;;;;;;;5054147;28;20366;-63
2021/04/12 00:04:56;;;;;;;;;;;;;;;;;;5054081;28;20346;-62
2021/04/12 00:07:22;;;;;;;;;;;;;;;;;;5053995;28;19905;-62
2021/04/12 00:09:47;;;;;;;;;;;;;;;;;;5054472;28;19905;-63
2021/04/12 00:12:13;;;;;;;;;;;;;;;;;;5041669;28;19905;-61
2021/04/12 00:14:39;;;;;;;;;;;;;;;;;;5034653;28;19905;-61
2021/04/12 00:17:05;;;;;;;;;;;;;;;;;;5038116;28;19987;-61
2021/04/12 00:19:31;;;;;;;;;;;;;;;;;;5048754;28;19959;-60
2021/04/12 00:21:57;;;;;;;;;;;;;;;;;;5041880;28;19913;-61
2021/04/12 00:24:23;;;;;;;;;;;;;;;;;;5051760;28;19913;-62
2021/04/12 00:26:49;;;;;;;;;;;;;;;;;;5052124;28;20274;-62
2021/04/12 00:29:15;;;;;;;;;;;;;;;;;;5038391;28;19913;-61
2021/04/12 00:31:41;;;;;;;;;;;;;;;;;;5051419;28;19912;-62
2021/04/12 00:34:07;;;;;;;;;;;;;;;;;;5051685;28;19912;-60
2021/04/12 00:36:33;;;;;;;;;;;;;;;;;;5052059;28;19911;-60
2021/04/12 00:38:59;;;;;;;;;;;;;;;;;;5052120;28;19999;-60
2021/04/12 00:41:24;;;;;;;;;;;;;;;;;;5052130;28;19974;-60
2021/04/12 00:43:50;;;;;;;;;;;;;;;;;;5051643;28;20373;-59
2021/04/12 00:46:16;;;;;;;;;;;;;;;;;;5039226;28;19905;-61
2021/04/12 00:48:42;;;;;;;;;;;;;;;;;;5051563;28;19917;-60
2021/04/12 00:51:08;;;;;;;;;;;;;;;;;;5055877;28;19921;-60
2021/04/12 00:53:34;;;;;;;;;;;;;;;;;;5055173;28;20007;-62
2021/04/12 00:56:00;;;;;;;;;;;;;;;;;;5055636;28;19963;-61
2021/04/12 00:58:26;;;;;;;;;;;;;;;;;;5055655;28;19909;-61
2021/04/12 01:00:52;;;;;;;;;;;;;;;;;;5055514;28;19905;-60
2021/04/12 01:03:18;;;;;;;;;;;;;;;;;;5055381;28;19908;-60
2021/04/12 01:05:44;;;;;;;;;;;;;;;;;;5055503;28;20491;-59
2021/04/12 01:08:10;;;;;;;;;;;;;;;;;;5055751;28;19905;-63
2021/04/12 01:10:36;;;;;;;;;;;;;;;;;;5037237;28;20016;-60
2021/04/12 01:13:02;;;;;;;;;;;;;;;;;;5055514;28;20004;-61
2021/04/12 01:15:28;;;;;;;;;;;;;;;;;;5055040;28;19905;-60
2021/04/12 01:17:53;;;;;;;;;;;;;;;;;;5056017;28;19919;-60
2021/04/12 01:20:19;;;;;;;;;;;;;;;;;;5055305;28;20444;-60
2021/04/12 01:22:45;;;;;;;;;;;;;;;;;;5054772;28;19909;-61
2021/04/12 01:25:11;;;;;;;;;;;;;;;;;;5055207;28;19916;-62
2021/04/12 01:27:38;;;;;;;;;;;;;;;;;;5054801;28;19911;-60
2021/04/12 01:30:04;;;;;;;;;;;;;;;;;;5055166;28;20391;-60
2021/04/12 01:32:30;;;;;;;;;;;;;;;;;;5054910;28;19931;-60
2021/04/12 01:34:56;;;;;;;;;;;;;;;;;;5054615;28;19916;-60
2021/04/12 01:37:22;;;;;;;;;;;;;;;;;;5055041;28;19905;-59
2021/04/12 01:39:48;;;;;;;;;;;;;;;;;;5054814;28;19905;-59
2021/04/12 01:42:13;;;;;;;;;;;;;;;;;;5054793;28;20272;-61
2021/04/12 01:44:40;;;;;;;;;;;;;;;;;;5054687;28;19913;-63
2021/04/12 01:47:05;;;;;;;;;;;;;;;;;;5054881;28;19904;-62
2021/04/12 01:49:31;;;;;;;;;;;;;;;;;;5054089;28;20381;-59
2021/04/12 01:51:57;;;;;;;;;;;;;;;;;;5054736;28;19917;-61
2021/04/12 01:54:23;;;;;;;;;;;;;;;;;;5054493;28;20426;-61
2021/04/12 01:56:49;;;;;;;;;;;;;;;;;;5054615;28;20016;-61
2021/04/12 01:59:15;;;;;;;;;;;;;;;;;;5054247;28;19951;-61
2021/04/12 02:01:41;;;;;;;;;;;;;;;;;;5054374;28;19952;-61
2021/04/12 02:04:07;;;;;;;;;;;;;;;;;;5054140;28;20021;-61
2021/04/12 02:06:33;;;;;;;;;;;;;;;;;;5053422;28;19909;-61
2021/04/12 02:08:59;;;;;;;;;;;;;;;;;;5053769;28;20354;-61
2021/04/12 02:11:25;;;;;;;;;;;;;;;;;;5054433;28;19924;-60
2021/04/12 02:13:50;;;;;;;;;;;;;;;;;;5054171;28;19952;-61
2021/04/12 02:16:17;;;;;;;;;;;;;;;;;;5054417;28;20425;-61
2021/04/12 02:18:42;;;;;;;;;;;;;;;;;;5039921;28;19939;-61
2021/04/12 02:21:08;;;;;;;;;;;;;;;;;;5055285;28;20357;-62
2021/04/12 02:23:34;;;;;;;;;;;;;;;;;;5055500;28;19908;-61
2021/04/12 02:26:00;;;;;;;;;;;;;;;;;;5055745;28;19916;-61
2021/04/12 02:28:26;;;;;;;;;;;;;;;;;;5042120;28;19931;-60
2021/04/12 02:30:52;;;;;;;;;;;;;;;;;;5055375;28;19909;-61
2021/04/12 02:33:18;;;;;;;;;;;;;;;;;;5056520;28;20343;-62
2021/04/12 02:35:44;;;;;;;;;;;;;;;;;;5055205;28;20016;-61
2021/04/12 02:38:10;;;;;;;;;;;;;;;;;;5045767;28;19940;-62
2021/04/12 02:40:36;;;;;;;;;;;;;;;;;;5036827;28;19905;-61
2021/04/12 02:43:02;;;;;;;;;;;;;;;;;;5054010;28;19912;-61
2021/04/12 02:45:28;;;;;;;;;;;;;;;;;;5053542;28;19917;-61
2021/04/12 02:47:54;;;;;;;;;;;;;;;;;;5053212;28;19958;-61
2021/04/12 02:50:20;;;;;;;;;;;;;;;;;;5053413;28;20346;-61
2021/04/12 02:52:46;;;;;;;;;;;;;;;;;;5053394;28;20001;-60
2021/04/12 02:55:12;;;;;;;;;;;;;;;;;;5053713;28;19958;-61
2021/04/12 02:57:38;;;;;;;;;;;;;;;;;;5053255;28;19905;-61
2021/04/12 03:00:04;;;;;;;;;;;;;;;;;;5053608;28;19909;-61
2021/04/12 03:02:30;;;;;;;;;;;;;;;;;;5052284;28;19974;-61
2021/04/12 03:04:56;;;;;;;;;;;;;;;;;;5053579;28;20359;-61
2021/04/12 03:07:22;;;;;;;;;;;;;;;;;;5052916;28;19904;-62
2021/04/12 03:09:48;;;;;;;;;;;;;;;;;;5053544;28;19939;-62
2021/04/12 03:12:14;;;;;;;;;;;;;;;;;;5052550;28;20393;-63
2021/04/12 03:14:40;;;;;;;;;;;;;;;;;;5053178;28;20004;-60
2021/04/12 03:17:06;;;;;;;;;;;;;;;;;;5039137;28;20000;-63
2021/04/12 03:19:31;;;;;;;;;;;;;;;;;;5052958;28;19996;-61
2021/04/12 03:21:57;;;;;;;;;;;;;;;;;;5053023;28;20380;-60
2021/04/12 03:24:23;;;;;;;;;;;;;;;;;;5052488;28;19913;-63
2021/04/12 03:26:49;;;;;;;;;;;;;;;;;;5053223;28;19927;-61
2021/04/12 03:29:15;;;;;;;;;;;;;;;;;;5052603;28;20355;-62
2021/04/12 03:31:41;;;;;;;;;;;;;;;;;;5051458;28;19909;-61
2021/04/12 03:34:07;;;;;;;;;;;;;;;;;;5049880;28;19958;-61
2021/04/12 03:36:33;;;;;;;;;;;;;;;;;;5052564;28;19950;-62
2021/04/12 03:38:59;;;;;;;;;;;;;;;;;;5052593;28;19911;-61
2021/04/12 03:41:25;;;;;;;;;;;;;;;;;;5052822;28;20106;-61
2021/04/12 03:43:51;;;;;;;;;;;;;;;;;;5052379;28;19919;-62
2021/04/12 03:46:16;;;;;;;;;;;;;;;;;;5042872;28;19988;-62
2021/04/12 03:48:42;;;;;;;;;;;;;;;;;;5048185;28;19963;-61
2021/04/12 03:51:09;;;;;;;;;;;;;;;;;;5052377;28;19960;-62
2021/04/12 03:53:34;;;;;;;;;;;;;;;;;;5039165;28;19909;-61
2021/04/12 03:56:00;;;;;;;;;;;;;;;;;;5051986;28;19915;-61
2021/04/12 03:58:26;;;;;;;;;;;;;;;;;;5052658;28;19909;-60
2021/04/12 04:00:52;;;;;;;;;;;;;;;;;;5048819;28;19906;-62
2021/04/12 04:03:18;;;;;;;;;;;;;;;;;;5032768;28;20314;-62
2021/04/12 04:05:44;;;;;;;;;;;;;;;;;;5047724;28;20381;-62
2021/04/12 04:08:10;;;;;;;;;;;;;;;;;;5052228;28;20358;-61
2021/04/12 04:10:36;;;;;;;;;;;;;;;;;;5052522;28;19905;-61
2021/04/12 04:13:02;;;;;;;;;;;;;;;;;;5052184;28;19905;-62
2021/04/12 04:15:28;;;;;;;;;;;;;;;;;;5041375;28;19905;-62
2021/04/12 04:17:54;;;;;;;;;;;;;;;;;;5049258;28;20314;-62
2021/04/12 04:20:20;;;;;;;;;;;;;;;;;;5052335;28;20267;-62
2021/04/12 04:22:46;;;;;;;;;;;;;;;;;;5052652;28;20359;-65
2021/04/12 04:25:11;;;;;;;;;;;;;;;;;;5056143;28;19913;-63
2021/04/12 04:27:37;;;;;;;;;;;;;;;;;;5056093;28;19911;-63
2021/04/12 04:30:03;;;;;;;;;;;;;;;;;;5056334;28;19909;-62
2021/04/12 04:32:29;;;;;;;;;;;;;;;;;;5056262;28;20271;-62
2021/04/12 04:34:55;;;;;;;;;;;;;;;;;;5055594;28;19930;-62
2021/04/12 04:37:23;;;;;;;;;;;;;;;;;;5047102;28;19916;-62
2021/04/12 04:39:49;;;;;;;;;;;;;;;;;;5050326;28;19916;-62
2021/04/12 04:42:15;;;;;;;;;;;;;;;;;;5056173;28;19905;-62
2021/04/12 04:44:41;;;;;;;;;;;;;;;;;;5055807;28;20282;-62
2021/04/12 04:47:07;;;;;;;;;;;;;;;;;;5051337;28;19912;-62
2021/04/12 04:49:33;;;;;;;;;;;;;;;;;;5046490;28;19927;-62
2021/04/12 04:51:59;;;;;;;;;;;;;;;;;;5055679;28;20405;-62
2021/04/12 04:54:25;;;;;;;;;;;;;;;;;;5055508;28;19911;-62
2021/04/12 04:56:51;;;;;;;;;;;;;;;;;;5055917;28;19916;-62
2021/04/12 04:59:17;;;;;;;;;;;;;;;;;;5055382;28;19905;-62
2021/04/12 05:01:43;;;;;;;;;;;;;;;;;;5055815;28;19905;-62
2021/04/12 05:04:08;;;;;;;;;;;;;;;;;;5055382;28;19913;-62
2021/04/12 05:06:34;;;;;;;;;;;;;;;;;;5054747;28;19904;-62
2021/04/12 05:09:00;;;;;;;;;;;;;;;;;;5055234;28;20532;-62
2021/04/12 05:11:26;;;;;;;;;;;;;;;;;;5055155;28;19904;-62
2021/04/12 05:13:52;;;;;;;;;;;;;;;;;;5055379;28;20030;-61
2021/04/12 05:16:18;;;;;;;;;;;;;;;;;;5055211;28;20010;-62
2021/04/12 05:18:44;;;;;;;;;;;;;;;;;;5055303;28;19994;-61
2021/04/12 05:21:10;;;;;;;;;;;;;;;;;;5055312;28;20409;-62
2021/04/12 05:23:36;;;;;;;;;;;;;;;;;;5054776;28;22335;-62
2021/04/12 05:26:02;;;;;;;;;;;;;;;;;;5055178;28;19936;-62
2021/04/12 05:28:28;;;;;;;;;;;;;;;;;;5055031;28;20354;-62
2021/04/12 05:30:54;;;;;;;;;;;;;;;;;;5055193;28;19911;-61
2021/04/12 05:33:20;;;;;;;;;;;;;;;;;;5055061;28;19959;-62
2021/04/12 05:35:45;;;;;;;;;;;;;;;;;;5054297;28;19944;-66
2021/04/12 05:38:11;;;;;;;;;;;;;;;;;;5054173;28;19963;-62
2021/04/12 05:40:37;;;;;;;;;;;;;;;;;;5054608;28;19962;-62
2021/04/12 05:43:03;;;;;;;;;;;;;;;;;;5054645;28;20350;-61
2021/04/12 05:45:29;;;;;;;;;;;;;;;;;;5041234;28;19916;-59
2021/04/12 05:47:55;;;;;;;;;;;;;;;;;;5054500;28;19952;-60
2021/04/12 05:50:21;;;;;;;;;;;;;;;;;;5054138;28;19956;-59
2021/04/12 05:52:47;;;;;;;;;;;;;;;;;;5039040;28;20264;-57
2021/04/12 05:55:13;;;;;;;;;;;;;;;;;;5050897;28;19920;-59
2021/04/12 05:57:39;;;;;;;;;;;;;;;;;;5037812;28;19909;-58
2021/04/12 06:00:05;;;;;;;;;;;;;;;;;;5044758;28;19912;-56
2021/04/12 06:02:31;;;;;;;;;;;;;;;;;;5053517;28;19908;-56
2021/04/12 06:04:57;;;;;;;;;;;;;;;;;;5039919;28;20401;-55
2021/04/12 06:07:23;;;;;;;;;;;;;;;;;;5054672;28;19909;-55
2021/04/12 06:09:49;;;;;;;;;;;;;;;;;;5053892;28;19905;-56
2021/04/12 06:12:15;;;;;;;;;;;;;;;;;;5054284;28;19905;-57
2021/04/12 06:14:41;;;;;;;;;;;;;;;;;;5044421;28;19913;-56
2021/04/12 06:17:06;;;;;;;;;;;;;;;;;;5045107;28;19912;-57
2021/04/12 06:19:32;;;;;;;;;;;;;;;;;;5054040;28;19912;-57
2021/04/12 06:21:58;;;;;;;;;;;;;;;;;;5054219;28;19916;-57
2021/04/12 06:24:24;;;;;;;;;;;;;;;;;;5054033;28;19913;-56
2021/04/12 06:26:50;;;;;;;;;;;;;;;;;;5053791;28;20346;-56
2021/04/12 06:29:16;;;;;;;;;;;;;;;;;;5049717;28;19912;-56
2021/04/12 06:31:42;;;;;;;;;;;;;;;;;;5053942;28;19912;-57
2021/04/12 06:34:08;;;;;;;;;;;;;;;;;;5053793;28;20022;-57
2021/04/12 06:36:34;;;;;;;;;;;;;;;;;;5053233;28;19935;-57
2021/04/12 06:39:00;;;;;;;;;;;;;;;;;;5053624;28;19905;-57
2021/04/12 06:41:26;;;;;;;;;;;;;;;;;;5053751;28;19908;-57
2021/04/12 06:43:52;;;;;;;;;;;;;;;;;;5053468;28;19909;-57
2021/04/12 06:46:17;;;;;;;;;;;;;;;;;;5052645;28;19928;-57
2021/04/12 06:48:44;;;;;;;;;;;;;;;;;;5053472;28;20007;-56
2021/04/12 06:51:10;;;;;;;;;;;;;;;;;;5053286;28;19967;-57
2021/04/12 06:53:36;;;;;;;;;;;;;;;;;;5053966;28;19904;-57
2021/04/12 06:56:02;;;;;;;;;;;;;;;;;;5053251;28;19911;-57
2021/04/12 06:58:28;;;;;;;;;;;;;;;;;;5053157;28;19905;-56
2021/04/12 07:00:54;;;;;;;;;;;;;;;;;;5052886;28;19922;-56
2021/04/12 07:03:20;;;;;;;;;;;;;;;;;;5053103;28;20331;-56
2021/04/12 07:05:46;;;;;;;;;;;;;;;;;;5053409;28;19908;-57
2021/04/12 07:08:12;;;;;;;;;;;;;;;;;;5053063;28;20381;-56
2021/04/12 07:10:38;;;;;;;;;;;;;;;;;;5053388;28;19905;-56
2021/04/12 07:13:04;;;;;;;;;;;;;;;;;;5052931;28;20371;-56
2021/04/12 07:15:30;;;;;;;;;;;;;;;;;;5052937;28;19904;-55
2021/04/12 07:17:56;;;;;;;;;;;;;;;;;;5053122;28;19905;-55
2021/04/12 07:20:22;;;;;;;;;;;;;;;;;;5052880;28;19908;-55
2021/04/12 07:22:48;;;;;;;;;;;;;;;;;;5053635;28;19962;-55
2021/04/12 07:25:14;;;;;;;;;;;;;;;;;;5052432;28;19919;-58
2021/04/12 07:27:40;;;;;;;;;;;;;;;;;;5051260;28;20003;-58
2021/04/12 07:30:06;;;;;;;;;;;;;;;;;;5052459;28;19915;-58
2021/04/12 07:32:32;;;;;;;;;;;;;;;;;;5047086;28;19928;-57
2021/04/12 07:34:58;;;;;;;;;;;;;;;;;;5045067;28;20359;-57
2021/04/12 07:37:23;;;;;;;;;;;;;;;;;;5052810;28;19911;-57
2021/04/12 07:39:49;;;;;;;;;;;;;;;;;;5052559;28;19909;-56
2021/04/12 07:42:15;;;;;;;;;;;;;;;;;;5052676;28;19905;-58
2021/04/12 07:44:41;;;;;;;;;;;;;;;;;;5052000;28;19928;-58
2021/04/12 07:47:07;;;;;;;;;;;;;;;;;;5038811;28;20370;-59
2021/04/12 07:49:33;;;;;;;;;;;;;;;;;;5052322;28;20290;-58
2021/04/12 07:51:59;;;;;;;;;;;;;;;;;;5051496;28;20412;-57
2021/04/12 07:54:25;;;;;;;;;;;;;;;;;;5051238;28;19919;-58
2021/04/12 07:56:51;;;;;;;;;;;;;;;;;;5043586;28;20442;-56
2021/04/12 07:59:17;;;;;;;;;;;;;;;;;;5047779;28;19913;-58
2021/04/12 08:01:43;;;;;;;;;;;;;;;;;;5038322;28;19919;-61
2021/04/12 08:04:08;;;;;;;;;;;;;;;;;;5039707;28;19908;-59
2021/04/12 08:06:34;;;;;;;;;;;;;;;;;;5031784;28;19909;-62
2021/04/12 08:09:00;;;;;;;;;;;;;;;;;;5047739;28;20366;-58
2021/04/12 08:11:26;;;;;;;;;;;;;;;;;;5046753;28;19915;-57
2021/04/12 08:13:52;;;;;;;;;;;;;;;;;;5048308;28;19991;-58
2021/04/12 08:16:18;;;;;;;;;;;;;;;;;;5040687;28;20019;-59
2021/04/12 08:18:44;;;;;;;;;;;;;;;;;;5042563;28;19995;-57
2021/04/12 08:21:10;;;;;;;;;;;;;;;;;;5046525;28;19931;-58
2021/04/12 08:23:36;;;;;;;;;;;;;;;;;;5050696;28;19905;-57
2021/04/12 08:26:02;;;;;;;;;;;;;;;;;;5048433;28;19939;-57
2021/04/12 08:28:28;;;;;;;;;;;;;;;;;;5045537;28;20042;-60
2021/04/12 08:30:54;;;;;;;;;;;;;;;;;;5023589;28;20308;-59
2021/04/12 08:33:20;;;;;;;;;;;;;;;;;;5042223;28;20026;-59
2021/04/12 08:35:46;;;;;;;;;;;;;;;;;;5044228;28;20003;-58
2021/04/12 08:38:12;;;;;;;;;;;;;;;;;;5045884;28;20314;-60
2021/04/12 08:40:37;;;;;;;;;;;;;;;;;;5047597;28;19904;-60
2021/04/12 08:43:03;;;;;;;;;;;;;;;;;;5040732;28;19904;-60
2021/04/12 08:45:29;;;;;;;;;;;;;;;;;;5041807;28;19916;-60
2021/04/12 08:47:55;;;;;;;;;;;;;;;;;;5048487;28;19916;-59
2021/04/12 08:50:22;;;;;;;;;;;;;;;;;;5038976;28;19936;-58
2021/04/12 08:52:48;;;;;;;;;;;;;;;;;;5037346;28;19913;-58
2021/04/12 08:55:14;;;;;;;;;;;;;;;;;;5029402;28;20019;-59
2021/04/12 08:57:40;;;;;;;;;;;;;;;;;;5036243;28;20562;-61
2021/04/12 09:00:06;;;;;;;;;;;;;;;;;;5048249;28;19962;-62
2021/04/12 09:02:32;;;;;;;;;;;;;;;;;;5045435;28;19979;-59
2021/04/12 09:05:01;;;;;;;;;;;;;;;;;;5033429;28;19999;-58
2021/04/12 09:07:27;;;;;;;;;;;;;;;;;;5034700;28;19909;-62
2021/04/12 09:09:53;;;;;;;;;;;;;;;;;;5046426;28;19904;-61
2021/04/12 09:12:19;;;;;;;;;;;;;;;;;;5052436;28;19996;-61
2021/04/12 09:14:45;;;;;;;;;;;;;;;;;;5051978;28;19958;-60
2021/04/12 09:17:11;;;;;;;;;;;;;;;;;;5052022;28;20004;-57
2021/04/12 09:19:37;;;;;;;;;;;;;;;;;;5053147;28;19999;-59
2021/04/12 09:22:03;;;;;;;;;;;;;;;;;;5052509;28;19986;-57
2021/04/12 09:24:28;;;;;;;;;;;;;;;;;;5046995;28;19925;-61
2021/04/12 09:26:54;;;;;;;;;;;;;;;;;;5038065;28;20380;-58
2021/04/12 09:29:20;;;;;;;;;;;;;;;;;;5047977;28;19912;-61
2021/04/12 09:31:46;;;;;;;;;;;;;;;;;;5046318;28;20340;-63
2021/04/12 09:34:12;;;;;;;;;;;;;;;;;;5042878;28;20333;-70
2021/04/12 09:36:38;;;;;;;;;;;;;;;;;;5046854;28;20282;-65
2021/04/12 09:39:04;;;;;;;;;;;;;;;;;;5041231;28;20370;-66
2021/04/12 09:41:30;;;;;;;;;;;;;;;;;;5046787;28;19905;-63
2021/04/12 09:43:56;;;;;;;;;;;;;;;;;;5043015;28;20423;-62
2021/04/12 09:46:22;;;;;;;;;;;;;;;;;;5045450;28;19909;-62
2021/04/12 09:48:48;;;;;;;;;;;;;;;;;;5050380;28;19918;-64
2021/04/12 09:51:14;;;;;;;;;;;;;;;;;;5052555;28;19921;-64
2021/04/12 09:53:41;;;;;;;;;;;;;;;;;;5041683;28;20388;-67
2021/04/12 09:56:07;;;;;;;;;;;;;;;;;;5045928;28;19983;-64
2021/04/12 09:58:33;;;;;;;;;;;;;;;;;;5050572;28;20357;-66
2021/04/12 10:00:59;;;;;;;;;;;;;;;;;;5046870;28;19917;-67
2021/04/12 10:03:25;;;;;;;;;;;;;;;;;;5037747;28;19913;-70
2021/04/12 10:05:51;;;;;;;;;;;;;;;;;;5035228;28;20025;-64
2021/04/12 10:08:17;;;;;;;;;;;;;;;;;;5039231;28;19912;-65
2021/04/12 10:10:43;;;;;;;;;;;;;;;;;;5034482;28;20377;-64
2021/04/12 10:13:09;;;;;;;;;;;;;;;;;;5041979;28;20043;-66
2021/04/12 10:15:35;;;;;;;;;;;;;;;;;;5018932;28;19905;-65
2021/04/12 10:18:00;;;;;;;;;;;;;;;;;;5047747;28;19912;-68
2021/04/12 10:20:26;;;;;;;;;;;;;;;;;;5043720;28;19909;-67
2021/04/12 10:22:52;;;;;;;;;;;;;;;;;;5039957;28;20054;-65
2021/04/12 10:25:18;;;;;;;;;;;;;;;;;;5037708;28;19921;-66
2021/04/12 10:27:44;;;;;;;;;;;;;;;;;;5034752;28;19905;-65
2021/04/12 10:30:10;;;;;;;;;;;;;;;;;;5036861;28;19908;-62
2021/04/12 10:32:36;;;;;;;;;;;;;;;;;;5045652;28;20012;-63
2021/04/12 10:35:02;;;;;;;;;;;;;;;;;;5042600;28;19915;-65
2021/04/12 10:37:28;;;;;;;;;;;;;;;;;;5044576;28;19966;-62
2021/04/12 10:39:54;;;;;;;;;;;;;;;;;;5034617;28;19905;-62
2021/04/12 10:42:20;;;;;;;;;;;;;;;;;;5037396;28;19951;-66
2021/04/12 10:44:48;;;;;;;;;;;;;;;;;;5049028;28;19974;-69
2021/04/12 10:47:14;;;;;;;;;;;;;;;;;;5038261;28;19919;-67
2021/04/12 10:49:40;;;;;;;;;;;;;;;;;;5042162;28;19917;-62
2021/04/12 10:52:06;;;;;;;;;;;;;;;;;;5035482;28;20330;-64
2021/04/12 10:54:32;;;;;;;;;;;;;;;;;;5039620;28;20019;-60
2021/04/12 10:56:58;;;;;;;;;;;;;;;;;;5034299;28;20063;-66
2021/04/12 10:59:24;;;;;;;;;;;;;;;;;;5037488;28;19940;-60
2021/04/12 11:01:50;;;;;;;;;;;;;;;;;;5036293;28;19976;-71
2021/04/12 11:04:16;;;;;;;;;;;;;;;;;;5038205;28;19917;-66
2021/04/12 11:06:41;;;;;;;;;;;;;;;;;;5044929;28;19916;-69
2021/04/12 11:09:07;;;;;;;;;;;;;;;;;;5050366;28;20343;-68
2021/04/12 11:11:33;;;;;;;;;;;;;;;;;;5046549;28;19905;-65
2021/04/12 11:13:59;;;;;;;;;;;;;;;;;;5047337;28;19920;-66
2021/04/12 11:16:25;;;;;;;;;;;;;;;;;;5051276;28;19909;-68
2021/04/12 11:18:51;;;;;;;;;;;;;;;;;;5035313;28;19908;-67
2021/04/12 11:21:17;;;;;;;;;;;;;;;;;;5048672;28;19916;-67
2021/04/12 11:23:43;;;;;;;;;;;;;;;;;;5042125;28;19912;-65
2021/04/12 11:26:09;;;;;;;;;;;;;;;;;;5035745;28;19912;-68
2021/04/12 11:28:35;;;;;;;;;;;;;;;;;;5036304;28;20313;-66
2021/04/12 11:31:01;;;;;;;;;;;;;;;;;;5050172;28;20465;-63
2021/04/12 11:33:27;;;;;;;;;;;;;;;;;;5040964;28;20054;-69
2021/04/12 11:35:53;;;;;;;;;;;;;;;;;;5041327;28;20001;-66
2021/04/12 11:38:19;;;;;;;;;;;;;;;;;;5044899;28;19984;-66
2021/04/12 11:40:45;;;;;;;;;;;;;;;;;;5045431;28;19915;-72
2021/04/12 11:43:11;;;;;;;;;;;;;;;;;;5040584;28;20274;-64
2021/04/12 11:45:37;;;;;;;;;;;;;;;;;;5037812;28;19921;-69
2021/04/12 11:48:04;;;;;;;;;;;;;;;;;;5034534;28;20279;-65
2021/04/12 11:50:30;;;;;;;;;;;;;;;;;;5037857;28;19916;-66
2021/04/12 11:52:56;;;;;;;;;;;;;;;;;;5033390;28;20336;-64
2021/04/12 11:55:22;;;;;;;;;;;;;;;;;;5039592;28;19920;-63
2021/04/12 11:57:48;;;;;;;;;;;;;;;;;;5038653;28;19913;-64
2021/04/12 12:00:14;;;;;;;;;;;;;;;;;;5033260;28;19909;-70
2021/04/12 12:02:41;;;;;;;;;;;;;;;;;;5046555;28;19908;-71
2021/04/12 12:05:07;;;;;;;;;;;;;;;;;;5042551;28;20408;-62
2021/04/12 12:07:33;;;;;;;;;;;;;;;;;;5032973;28;20378;-66
2021/04/12 12:09:59;;;;;;;;;;;;;;;;;;5042819;28;19979;-67
2021/04/12 12:12:25;;;;;;;;;;;;;;;;;;5045856;28;19927;-65
2021/04/12 12:14:51;;;;;;;;;;;;;;;;;;5048376;28;19915;-64
2021/04/12 12:17:20;;;;;;;;;;;;;;;;;;5046735;28;19951;-70
2021/04/12 12:19:46;;;;;;;;;;;;;;;;;;5048408;28;20312;-66
2021/04/12 12:22:13;;;;;;;;;;;;;;;;;;5048715;28;19916;-74
2021/04/12 12:24:39;;;;;;;;;;;;;;;;;;5048525;28;19920;-65
2021/04/12 12:27:05;;;;;;;;;;;;;;;;;;5046009;28;19919;-72
2021/04/12 12:29:31;;;;;;;;;;;;;;;;;;5048260;28;19917;-68
2021/04/12 12:31:57;;;;;;;;;;;;;;;;;;5048304;28;19954;-64
2021/04/12 12:34:24;;;;;;;;;;;;;;;;;;5048637;28;19963;-70
2021/04/12 12:36:51;;;;;;;;;;;;;;;;;;5049145;28;19905;-67
2021/04/12 12:39:17;;;;;;;;;;;;;;;;;;5045304;28;19916;-73
2021/04/12 12:41:43;;;;;;;;;;;;;;;;;;5047293;28;19909;-64
2021/04/12 12:44:09;;;;;;;;;;;;;;;;;;5048161;28;20273;-64
2021/04/12 12:46:35;;;;;;;;;;;;;;;;;;5052811;28;20278;-66
2021/04/12 12:49:01;;;;;;;;;;;;;;;;;;5048532;28;19978;-60
2021/04/12 12:51:27;;;;;;;;;;;;;;;;;;5044163;28;20349;-64
2021/04/12 12:53:53;;;;;;;;;;;;;;;;;;5049337;28;19912;-60
2021/04/12 12:56:19;;;;;;;;;;;;;;;;;;5029829;28;19964;-58
2021/04/12 12:58:45;;;;;;;;;;;;;;;;;;5039230;28;19999;-58
2021/04/12 13:01:11;;;;;;;;;;;;;;;;;;5041585;28;19909;-55
2021/04/12 13:03:38;;;;;;;;;;;;;;;;;;5050070;28;19909;-57
2021/04/12 13:06:04;;;;;;;;;;;;;;;;;;5051292;28;19916;-57
2021/04/12 13:08:32;;;;;;;;;;;;;;;;;;5039488;28;19967;-58
2021/04/12 13:10:58;;;;;;;;;;;;;;;;;;5037322;28;19917;-56
2021/04/12 13:13:25;;;;;;;;;;;;;;;;;;5045008;28;19979;-56
2021/04/12 13:15:51;;;;;;;;;;;;;;;;;;5037086;28;19913;-55
2021/04/12 13:18:17;;;;;;;;;;;;;;;;;;5035933;28;19945;-55
2021/04/12 13:20:42;;;;;;;;;;;;;;;;;;5039917;28;20358;-57
2021/04/12 13:23:08;;;;;;;;;;;;;;;;;;5041102;28;19975;-56
2021/04/12 13:25:34;;;;;;;;;;;;;;;;;;5054247;28;19935;-57
2021/04/12 13:28:00;;;;;;;;;;;;;;;;;;5043522;28;20346;-56
2021/04/12 13:30:26;;;;;;;;;;;;;;;;;;5036915;28;19917;-56
2021/04/12 13:32:52;;;;;;;;;;;;;;;;;;5040185;28;20344;-57
2021/04/12 13:35:18;;;;;;;;;;;;;;;;;;5042728;28;19928;-56
2021/04/12 13:37:45;;;;;;;;;;;;;;;;;;5041335;28;20003;-56
2021/04/12 13:40:11;;;;;;;;;;;;;;;;;;5035869;28;20031;-56
2021/04/12 13:42:37;;;;;;;;;;;;;;;;;;5036304;28;19995;-58
2021/04/12 13:45:03;;;;;;;;;;;;;;;;;;5039647;28;20054;-57
2021/04/12 13:47:29;;;;;;;;;;;;;;;;;;5037109;28;19962;-58
2021/04/12 13:49:56;;;;;;;;;;;;;;;;;;5039711;28;19925;-57
2021/04/12 13:52:22;;;;;;;;;;;;;;;;;;5047721;28;19916;-57
2021/04/12 13:54:48;;;;;;;;;;;;;;;;;;5049817;28;20004;-59
2021/04/12 13:57:13;;;;;;;;;;;;;;;;;;5050936;28;19944;-54
2021/04/12 13:59:39;;;;;;;;;;;;;;;;;;5049723;28;20345;-56
2021/04/12 14:02:05;;;;;;;;;;;;;;;;;;5048359;28;19913;-57
2021/04/12 14:04:31;;;;;;;;;;;;;;;;;;5047096;28;19923;-55
2021/04/12 14:06:57;;;;;;;;;;;;;;;;;;5046520;28;20283;-54
2021/04/12 14:09:23;;;;;;;;;;;;;;;;;;5044443;28;19917;-54
2021/04/12 14:11:49;;;;;;;;;;;;;;;;;;5044675;28;19919;-56
2021/04/12 14:14:15;;;;;;;;;;;;;;;;;;5046396;28;19909;-57
2021/04/12 14:16:41;;;;;;;;;;;;;;;;;;5047839;28;19909;-54
2021/04/12 14:19:07;;;;;;;;;;;;;;;;;;5045413;28;20369;-58
2021/04/12 14:21:33;;;;;;;;;;;;;;;;;;5043243;28;20317;-55
2021/04/12 14:23:59;;;;;;;;;;;;;;;;;;5040168;28;20277;-57
2021/04/12 14:26:25;;;;;;;;;;;;;;;;;;5039248;28;20343;-57
2021/04/12 14:28:50;;;;;;;;;;;;;;;;;;5038309;28;20008;-60
2021/04/12 14:31:16;;;;;;;;;;;;;;;;;;5035282;28;20433;-57
2021/04/12 14:33:44;;;;;;;;;;;;;;;;;;5040759;28;19999;-55
2021/04/12 14:36:10;;;;;;;;;;;;;;;;;;5033749;28;20373;-58
2021/04/12 14:38:36;;;;;;;;;;;;;;;;;;5036625;28;19905;-58
2021/04/12 14:41:02;;;;;;;;;;;;;;;;;;5039804;28;19913;-55
2021/04/12 14:43:28;;;;;;;;;;;;;;;;;;5035386;28;19944;-57
2021/04/12 14:45:54;;;;;;;;;;;;;;;;;;5035130;28;19917;-58
2021/04/12 14:48:20;;;;;;;;;;;;;;;;;;5041300;28;19936;-56
2021/04/12 14:50:49;;;;;;;;;;;;;;;;;;5046184;28;19927;-55
2021/04/12 14:53:15;;;;;;;;;;;;;;;;;;5048295;28;19917;-57
2021/04/12 14:55:41;;;;;;;;;;;;;;;;;;5039421;28;20035;-56
2021/04/12 14:58:07;;;;;;;;;;;;;;;;;;5034373;28;20043;-58
2021/04/12 15:00:33;;;;;;;;;;;;;;;;;;5019537;28;19908;-55
2021/04/12 15:02:59;;;;;;;;;;;;;;;;;;5044563;28;19966;-56
2021/04/12 15:05:25;;;;;;;;;;;;;;;;;;5025353;28;20014;-55
2021/04/12 15:07:51;;;;;;;;;;;;;;;;;;5036104;28;19962;-55
2021/04/12 15:10:17;;;;;;;;;;;;;;;;;;5034671;28;19960;-58
2021/04/12 15:12:43;;;;;;;;;;;;;;;;;;5040329;28;19994;-56
2021/04/12 15:15:09;;;;;;;;;;;;;;;;;;5034715;28;19912;-56
2021/04/12 15:17:35;;;;;;;;;;;;;;;;;;5034735;28;19963;-56
2021/04/12 15:20:02;;;;;;;;;;;;;;;;;;5036608;28;19909;-58
2021/04/12 15:22:28;;;;;;;;;;;;;;;;;;5035282;28;19924;-55
2021/04/12 15:24:54;;;;;;;;;;;;;;;;;;5039464;28;19914;-58
2021/04/12 15:27:20;;;;;;;;;;;;;;;;;;5022159;28;19908;-55
2021/04/12 15:29:46;;;;;;;;;;;;;;;;;;5028880;28;19912;-57
2021/04/12 15:32:12;;;;;;;;;;;;;;;;;;5039867;28;19932;-59
2021/04/12 15:34:38;;;;;;;;;;;;;;;;;;5038817;28;19909;-57
2021/04/12 15:37:04;;;;;;;;;;;;;;;;;;5035211;28;19922;-56
2021/04/12 15:39:30;;;;;;;;;;;;;;;;;;5019563;28;19979;-56
2021/04/12 15:41:56;;;;;;;;;;;;;;;;;;5035899;28;20378;-56
2021/04/12 15:44:22;;;;;;;;;;;;;;;;;;5036253;28;19917;-57
2021/04/12 15:46:48;;;;;;;;;;;;;;;;;;5040964;28;20296;-57
2021/04/12 15:49:14;;;;;;;;;;;;;;;;;;5034708;28;19921;-56
2021/04/12 15:51:40;;;;;;;;;;;;;;;;;;5032350;28;19924;-55
2021/04/12 15:54:06;;;;;;;;;;;;;;;;;;5038803;28;19905;-54
2021/04/12 15:56:32;;;;;;;;;;;;;;;;;;5033965;28;19925;-54
2021/04/12 15:58:58;;;;;;;;;;;;;;;;;;5035553;28;19917;-58
2021/04/12 16:01:24;;;;;;;;;;;;;;;;;;5025212;28;19909;-55
2021/04/12 16:03:50;;;;;;;;;;;;;;;;;;5037945;28;20027;-56
2021/04/12 16:06:16;;;;;;;;;;;;;;;;;;5036654;28;19912;-56
2021/04/12 16:08:42;;;;;;;;;;;;;;;;;;5032180;28;19940;-58
2021/04/12 16:11:08;;;;;;;;;;;;;;;;;;5032621;28;20179;-59
2021/04/12 16:13:34;;;;;;;;;;;;;;;;;;5029871;28;19908;-62
2021/04/12 16:16:00;;;;;;;;;;;;;;;;;;5034411;28;19952;-60
2021/04/12 16:18:26;;;;;;;;;;;;;;;;;;5049310;28;19909;-60
2021/04/12 16:20:52;;;;;;;;;;;;;;;;;;5032134;28;20004;-60
2021/04/12 16:23:18;;;;;;;;;;;;;;;;;;5054060;28;19908;-58
2021/04/12 16:25:44;;;;;;;;;;;;;;;;;;5054519;28;19913;-60
2021/04/12 16:28:10;;;;;;;;;;;;;;;;;;5054301;28;20313;-60
2021/04/12 16:30:36;;;;;;;;;;;;;;;;;;5053265;28;20342;-60
2021/04/12 16:33:02;;;;;;;;;;;;;;;;;;5045554;28;19923;-61
2021/04/12 16:35:28;;;;;;;;;;;;;;;;;;5053412;28;20003;-59